Open Full Screen Window  High Contrast Mode
Wind Gusting 00 knots
06
April 29, 2016 3:44 PM EDT
Weather Information
Wind Direction
  290 °
Wind Speed
  06 kt (7 mph)
Wind Gust
  00 kt (0 mph)
Altimeter
30.03 in
Visibility
10 SM
Temperature
20° C
68° F
Dewpoint
09° C
48° F
Humidity
49%
1hr Rain Fall
00.00 in.
24hr Rain Fall
00.00 in.
Sky Condition
Scattered @ 4,600 ft
VFR

METAR KI69 291944Z AUTO 29006KT 10SM SCT046 20/09 A3003 RMK AO2 T01950091

*Background is not an actual portrayal of the airport.